Flight Track Log - Related Links

Times and Time Zones

All times are in EDT time to prevent confusion due to time zone crossing. See the VNR187 flight status page for this flight to view local times or setup timezone preferences in your user account.

Time Position Orientation Groundspeed Altitude Reporting Facility
EDT Latitude Longitude Course Direction KTS MPH feet Rate Location/Type
Fri 03:07:52 PM 26.7672 -80.3631 246° West 209 241 5,700  Level Miami Center
Fri 03:08:52 PM 26.7428 -80.4297 248° West 209 241 7,500 1,850 Climbing Miami Center
Fri 03:09:52 PM 26.7206 -80.4825 245° Southwest 214 246 9,400 1,800 Climbing Miami Center
Fri 03:10:52 PM 26.7019 -80.5608 255° West 230 265 11,100 1,350 Climbing Miami Center
Fri 03:11:52 PM 26.7169 -80.6264 284° West 235 270 12,100 500 Climbing Miami Center
Fri 03:12:00 PM 26.7203 -80.6405 299° West  Level FlightAware Approximate
Fri 03:12:52 PM 26.7481 -80.7114 292° West 257 296 12,100  Level Miami Center
Fri 03:13:52 PM 26.7861 -80.7753 304° West 269 310 12,700 1,000 Climbing Miami Center
Fri 03:14:52 PM 26.8381 -80.8539 307° West 282 325 14,100 700 Climbing Miami Center
Fri 03:15:52 PM 26.8797 -80.9344 300° West 298 343 14,100  Level Miami Center
Fri 03:16:52 PM 26.9211 -81.0197 299° West 309 356 14,100 -50 Level Miami Center
Fri 03:17:52 PM 26.9606 -81.0981 299° West 314 361 14,000 -50 Descending Miami Center
Fri 03:18:52 PM 27.0019 -81.1833 299° West 314 361 14,000 50 Level Miami Center
Fri 03:19:52 PM 27.0472 -81.2783 298° West 314 361 14,100 50 Climbing Miami Center
Fri 03:20:52 PM 27.0864 -81.3639 297° West 314 361 14,100 -550 Level Miami Center
Fri 03:21:52 PM 27.1003 -81.4483 280° West 314 361 13,000 -1,100 Descending Miami Center
Fri 03:22:52 PM 27.1353 -81.5336 295° West 308 354 11,900 -1,050 Descending Miami Center
Fri 03:23:52 PM 27.1722 -81.6122 298° West 295 339 10,900 -500 Descending Miami Center
Fri 03:24:52 PM 27.2075 -81.6836 299° West 279 321 10,900  Level Miami Center
Fri 03:25:52 PM 27.2578 -81.7394 315° West 264 304 10,900 -50 Level Miami Center
Fri 03:26:52 PM 27.2911 -81.8039 300° West 258 297 10,800 -350 Descending Miami Center
Fri 03:27:52 PM 27.3239 -81.8778 297° West 252 290 10,200 -650 Descending Miami Center
Fri 03:28:52 PM 27.3650 -81.9592 300° West 274 315 9,500 -700 Descending Miami Center
Fri 03:29:52 PM 27.4061 -82.0381 300° West 291 335 8,800 -700 Descending Miami Center
Fri 03:30:52 PM 27.4447 -82.1194 298° West 291 335 8,100 -450 Descending Miami Center
Fri 03:31:52 PM 27.4986 -82.1872 312° West 291 335 7,900 -400 Descending Miami Center
Fri 03:32:52 PM 27.5333 -82.2639 297° West 286 329 7,300 -800 Descending Miami Center
Fri 03:33:52 PM 27.5631 -82.3611 289° West 286 329 6,300 -1,043 Descending Miami Center
Fri 03:34:47 PM 27.5833 -82.4333 288° West 278 320 5,300 -1,043 Descending Tampa TRACON
Fri 03:35:47 PM 27.6167 -82.5167 294° West 267 307 4,300 -650 Descending Tampa TRACON
Fri 03:36:47 PM 27.6500 -82.5833 299° West 247 284 4,000 -150 Descending Tampa TRACON
Fri 03:37:47 PM 27.7000 -82.6500 310° West 268 308 4,000 -53 Level Tampa TRACON
Fri 03:38:41 PM 27.7500 -82.7000 318° Northwest 277 319 3,900 -626 Descending Tampa TRACON
Fri 03:39:42 PM 27.8167 -82.7333 336° Northwest 264 304 2,800 -744 Descending Tampa TRACON
Fri 03:40:42 PM 27.8833 -82.7667 336° Northwest 237 273 2,400 -400 Descending Tampa TRACON
Fri 03:41:42 PM 27.9500 -82.7667 360° North 233 268 2,000 -200 Descending Tampa TRACON
Fri 03:42:42 PM 27.9833 -82.7500 24° Northeast 197 227 2,000 -200 Level Tampa TRACON
Fri 03:43:42 PM 27.9833 -82.7000 90° East 140 161 1,600 -737 Descending Tampa TRACON
Fri 03:44:36 PM 27.9500 -82.7000 180° South 120 138 600 -1,111 Descending Tampa TRACON
Fri 03:46:00 PM 27.9100 -82.6874 214° Southwest  Level Estimated
Fri 03:53:00 PM 27.9100 -82.6874 214° Southwest  Level Estimated
Fri 03:54:00 PM 27.9100 -82.6874 214° Southwest  Level Estimated

Login

Don't have an account? Register now (free) for customized features, flight alerts, and more!